Time;durP1;ratioP1;P1;durP2;ratioP2;P2;SDS_P1;SDS_P2;PMS_P1;PMS_P2;Temp;Humidity;BMP_temperature;BMP_pressure;BME280_temperature;BME280_humidity;BME280_pressure;Samples;Min_cycle;Max_cycle;Signal;HPM_P1;HPM_P2
2021/03/06 00:01:13;;;;;;;9.40;2.97;;;2.40;67.00;0.90;103283.00;;;;4976089;28;20050;-73
2021/03/06 00:03:39;;;;;;;13.13;2.90;;;2.40;67.10;1.00;103289.00;;;;4988957;28;20035;-73
2021/03/06 00:06:05;;;;;;;9.02;2.88;;;2.40;66.10;1.00;103297.00;;;;4993118;28;20046;-73
2021/03/06 00:08:31;;;;;;;11.95;2.63;;;2.40;66.50;1.00;103300.00;;;;4988487;28;20047;-74
2021/03/06 00:10:57;;;;;;;8.80;3.03;;;2.70;67.60;1.00;103284.00;;;;4975033;28;20750;-74
2021/03/06 00:13:24;;;;;;;11.60;2.75;;;2.30;67.00;0.90;103296.00;;;;4974135;28;20433;-73
2021/03/06 00:15:50;;;;;;;;;;;2.40;67.50;0.90;103293.00;;;;4955932;28;20137;-73
2021/03/06 00:18:16;;;;;;;6.47;2.88;;;2.40;68.10;0.90;103279.00;;;;4961467;28;19922;-73
2021/03/06 00:20:42;;;;;;;8.95;2.88;;;2.30;67.00;0.90;103291.00;;;;4976117;28;20182;-73
2021/03/06 00:23:08;;;;;;;9.50;3.15;;;2.30;67.50;0.90;103294.00;;;;4989494;28;20038;-74
2021/03/06 00:25:34;;;;;;;7.95;2.90;;;2.30;66.80;0.90;103277.00;;;;4972163;28;20437;-74
2021/03/06 00:28:00;;;;;;;10.93;3.28;;;3.00;67.70;0.90;103283.00;;;;5004585;28;20120;-73
2021/03/06 00:30:26;;;;;;;11.35;3.78;;;2.30;67.30;0.90;103286.00;;;;4984131;28;20038;-74
2021/03/06 00:32:52;;;;;;;13.10;4.00;;;2.30;66.40;0.90;103289.00;;;;4971035;28;20049;-73
2021/03/06 00:35:18;;;;;;;11.95;3.97;;;2.40;67.30;0.90;103292.00;;;;5012790;28;20039;-73
2021/03/06 00:37:44;;;;;;;13.82;4.68;;;2.30;66.80;0.90;103284.00;;;;4994876;28;21343;-74
2021/03/06 00:40:11;;;;;;;10.80;4.90;;;2.30;67.30;0.90;103283.00;;;;4996422;28;20125;-73
2021/03/06 00:42:37;;;;;;;17.58;5.85;;;2.30;68.00;0.90;103289.00;;;;4998001;28;20080;-73
2021/03/06 00:45:06;;;;;;;14.57;5.20;;;2.30;67.60;0.90;103287.00;;;;5011526;28;20038;-73
2021/03/06 00:47:32;;;;;;;14.20;5.53;;;2.30;67.40;0.90;103287.00;;;;4997424;28;20038;-73
2021/03/06 00:49:58;;;;;;;13.38;5.40;;;2.30;67.40;0.80;103285.00;;;;4997069;28;20499;-73
2021/03/06 00:52:25;;;;;;;12.43;5.35;;;2.30;67.20;0.80;103285.00;;;;4996412;28;20584;-74
2021/03/06 00:54:51;;;;;;;12.32;5.45;;;2.30;68.20;0.80;103281.00;;;;5014005;28;20066;-73
2021/03/06 00:57:17;;;;;;;10.73;5.32;;;2.30;68.10;0.80;103293.00;;;;4980436;28;20048;-73
2021/03/06 00:59:43;;;;;;;11.35;5.63;;;2.30;68.00;0.80;103275.00;;;;4994975;28;20129;-74
2021/03/06 01:02:11;;;;;;;10.80;5.22;;;2.30;68.20;0.70;103279.00;;;;5007483;28;20038;-74
2021/03/06 01:04:40;;;;;;;11.85;5.00;;;2.20;68.20;0.70;103277.00;;;;4981886;28;20135;-73
2021/03/06 01:07:06;;;;;;;12.52;6.22;;;2.20;67.30;0.70;103272.00;;;;4995580;28;20046;-74
2021/03/06 01:09:31;;;;;;;14.95;6.03;;;2.20;68.20;0.70;103271.00;;;;4994578;28;20045;-73
2021/03/06 01:11:57;;;;;;;10.63;5.68;;;2.20;68.30;0.60;103286.00;;;;4994654;28;20167;-73
2021/03/06 01:14:23;;;;;;;15.52;5.38;;;2.10;68.50;0.60;103281.00;;;;4999617;28;20038;-74
2021/03/06 01:16:49;;;;;;;9.95;4.70;;;2.10;68.90;0.60;103277.00;;;;4996552;28;20062;-74
2021/03/06 01:19:15;;;;;;;13.45;5.40;;;2.10;69.30;0.60;103272.00;;;;4996961;28;20038;-73
2021/03/06 01:21:41;;;;;;;16.65;5.03;;;2.10;69.40;0.60;103276.00;;;;5007110;28;20661;-74
2021/03/06 01:24:07;;;;;;;11.70;5.53;;;2.10;69.40;0.60;103282.00;;;;4994700;28;20042;-74
2021/03/06 01:26:33;;;;;;;15.02;5.28;;;2.10;69.20;0.60;103279.00;;;;5009778;28;20196;-74
2021/03/06 01:28:59;;;;;;;14.95;5.75;;;2.10;69.20;0.60;103271.00;;;;4983613;28;20424;-74
2021/03/06 01:31:25;;;;;;;10.73;4.93;;;2.10;69.30;0.60;103272.00;;;;5007155;28;20058;-74
2021/03/06 01:33:51;;;;;;;12.52;5.47;;;2.00;69.00;0.60;103278.00;;;;4994450;28;20041;-74
2021/03/06 01:36:17;;;;;;;12.35;4.70;;;2.00;69.30;0.50;103267.00;;;;4990417;28;20042;-73
2021/03/06 01:38:43;;;;;;;10.57;4.28;;;2.00;68.40;0.50;103264.00;;;;4984207;28;20045;-74
2021/03/06 01:41:09;;;;;;;14.63;5.00;;;2.00;68.20;0.50;103261.00;;;;4988994;28;20088;-73
2021/03/06 01:43:34;;;;;;;11.77;4.68;;;2.00;68.80;0.50;103265.00;;;;4992193;28;20108;-74
2021/03/06 01:46:00;;;;;;;10.65;4.55;;;2.00;68.80;0.50;103269.00;;;;4995415;28;20041;-73
2021/03/06 01:48:26;;;;;;;7.35;4.30;;;2.00;69.10;0.50;103268.00;;;;4995855;28;20046;-73
2021/03/06 01:50:52;;;;;;;7.63;3.78;;;2.00;68.20;0.50;103270.00;;;;4996280;28;20066;-73
2021/03/06 01:53:19;;;;;;;9.75;4.30;;;1.90;68.10;0.50;103261.00;;;;4987674;28;20901;-73
2021/03/06 01:55:48;;;;;;;10.23;3.83;;;2.00;69.10;0.50;103263.00;;;;4970962;28;20061;-73
2021/03/06 01:58:15;;;;;;;11.93;4.47;;;2.00;69.10;0.50;103267.00;;;;4969329;28;20129;-73
2021/03/06 02:00:42;;;;;;;12.25;3.63;;;2.00;69.50;0.50;103267.00;;;;4975368;28;20045;-74
2021/03/06 02:03:09;;;;;;;11.48;3.50;;;1.90;69.40;0.40;103267.00;;;;4990383;28;20035;-73
2021/03/06 02:05:35;;;;;;;9.43;3.42;;;2.00;68.60;0.40;103258.00;;;;4974672;28;20058;-73
2021/03/06 02:08:01;;;;;;;6.88;3.13;;;1.90;69.10;0.40;103258.00;;;;4973592;28;20533;-73
2021/03/06 02:10:34;;;;;;;9.37;2.90;;;1.90;69.20;0.40;103258.00;;;;4974473;28;20038;-73
2021/03/06 02:13:39;;;;;;;6.95;3.20;;;1.90;69.40;0.40;103260.00;;;;4953208;28;20034;-73
2021/03/06 02:16:10;;;;;;;9.95;3.20;;;1.90;68.40;0.40;103269.00;;;;4969460;28;20395;-73
2021/03/06 02:18:49;;;;;;;9.85;3.30;;;1.90;69.10;0.40;103249.00;;;;4981503;28;20050;-73
2021/03/06 02:21:32;;;;;;;;;;;1.90;69.60;0.30;103248.00;;;;4972984;28;20042;-73
2021/03/06 02:24:42;;;;;;;8.57;2.80;;;1.90;69.80;0.30;103257.00;;;;4988649;28;20036;-73
2021/03/06 02:27:32;;;;;;;15.93;3.97;;;1.90;69.40;0.30;103264.00;;;;5008006;28;20046;-73
2021/03/06 02:30:05;;;;;;;9.98;3.38;;;1.90;69.80;0.30;103261.00;;;;5006268;28;20141;-73
2021/03/06 02:32:36;;;;;;;7.05;3.30;;;1.80;69.40;0.30;103255.00;;;;4990767;28;20151;-73
2021/03/06 02:35:24;;;;;;;9.35;3.58;;;;;0.30;103258.00;;;;4995723;28;20038;-74
2021/03/06 02:38:03;;;;;;;9.35;4.20;;;1.80;69.50;0.30;103254.00;;;;5005694;28;20133;-73
2021/03/06 02:40:30;;;;;;;12.00;3.47;;;1.80;69.90;0.20;103255.00;;;;4991650;28;20041;-73
2021/03/06 02:42:57;;;;;;;;;;;1.80;70.00;0.20;103251.00;;;;4994729;28;20136;-73
2021/03/06 02:45:25;;;;;;;9.48;3.78;;;1.70;70.30;0.20;103248.00;;;;4992532;28;19925;-73
2021/03/06 02:47:52;;;;;;;13.05;4.30;;;1.70;69.70;0.20;103250.00;;;;5003403;28;20030;-73
2021/03/06 02:50:18;;;;;;;9.60;4.28;;;1.70;70.10;0.20;103258.00;;;;5011905;28;20077;-73
2021/03/06 02:52:44;;;;;;;15.27;4.65;;;1.70;69.40;0.10;103253.00;;;;5030225;28;20050;-73
2021/03/06 02:55:11;;;;;;;15.77;5.25;;;1.70;70.20;0.10;103245.00;;;;4992582;28;20057;-72
2021/03/06 02:58:09;;;;;;;12.90;5.20;;;1.70;70.60;0.10;103247.00;;;;4998574;28;20070;-73
2021/03/06 03:00:45;;;;;;;14.32;5.43;;;1.70;71.00;0.10;103256.00;;;;5004709;28;20050;-73
2021/03/06 03:03:32;;;;;;;12.60;5.10;;;1.60;70.50;0.00;103249.00;;;;5013631;28;20121;-73
2021/03/06 03:06:14;;;;;;;12.57;5.53;;;1.60;70.10;0.00;103248.00;;;;4992326;28;20042;-72
2021/03/06 03:09:12;;;;;;;10.95;5.35;;;1.60;70.20;0.00;103241.00;;;;4993518;28;20038;-71
2021/03/06 03:12:06;;;;;;;11.68;5.65;;;1.60;70.90;0.00;103246.00;;;;4981843;28;20038;-72
2021/03/06 03:14:47;;;;;;;13.95;5.10;;;1.50;69.90;0.00;103244.00;;;;4973993;28;20080;-72
2021/03/06 03:17:20;;;;;;;14.75;4.80;;;1.50;72.20;0.00;103246.00;;;;4969723;28;20038;-72
2021/03/06 03:19:59;;;;;;;12.95;5.10;;;1.50;71.80;0.00;103251.00;;;;4999332;28;20057;-72
2021/03/06 03:22:31;;;;;;;11.40;4.57;;;1.50;71.50;0.00;103249.00;;;;5005086;28;20042;-71
2021/03/06 03:25:00;;;;;;;10.98;4.55;;;1.50;71.30;0.00;103235.00;;;;4977953;28;20050;-72
2021/03/06 03:27:28;;;;;;;16.58;5.20;;;1.50;71.40;0.00;103241.00;;;;4981826;28;20041;-71
2021/03/06 03:29:56;;;;;;;14.32;5.05;;;1.50;71.40;-0.10;103242.00;;;;5004336;28;20140;-71
2021/03/06 03:32:23;;;;;;;;;;;1.50;71.50;-0.10;103245.00;;;;4978285;28;20064;-71
2021/03/06 03:34:50;;;;;;;11.65;5.22;;;1.40;72.40;-0.10;103242.00;;;;4991074;28;20003;-71
2021/03/06 03:37:16;;;;;;;12.15;4.80;;;1.40;71.40;-0.10;103240.00;;;;4994816;28;20121;-71
2021/03/06 03:39:42;;;;;;;15.50;5.38;;;1.40;71.00;-0.10;103228.00;;;;4975047;28;20042;-72
2021/03/06 03:42:09;;;;;;;15.63;4.47;;;1.50;71.40;-0.10;103230.00;;;;4993675;28;20042;-71
2021/03/06 03:44:36;;;;;;;19.60;5.30;;;1.50;71.70;-0.10;103235.00;;;;4986873;28;20034;-72
2021/03/06 03:47:03;;;;;;;10.70;4.28;;;1.50;71.90;-0.10;103234.00;;;;4987944;28;20328;-72
2021/03/06 03:49:29;;;;;;;9.60;4.00;;;1.50;71.50;0.00;103226.00;;;;4986676;28;20041;-72
2021/03/06 03:51:55;;;;;;;11.07;4.10;;;1.50;71.20;-0.10;103235.00;;;;4960694;28;20045;-72
2021/03/06 03:54:22;;;;;;;13.68;3.92;;;1.50;71.90;-0.10;103227.00;;;;5005630;28;20037;-72
2021/03/06 03:56:48;;;;;;;12.55;4.32;;;1.40;71.70;-0.10;103235.00;;;;4992149;28;20045;-72
2021/03/06 03:59:15;;;;;;;15.57;4.00;;;1.40;72.40;-0.10;103232.00;;;;4992709;28;20118;-72
2021/03/06 04:01:46;;;;;;;9.38;4.28;;;1.40;73.00;-0.10;103242.00;;;;4990628;28;20156;-72
2021/03/06 04:04:26;;;;;;;17.70;4.60;;;1.40;72.80;-0.10;103235.00;;;;4989601;28;20155;-71
2021/03/06 04:06:53;;;;;;;8.40;3.97;;;1.40;72.00;-0.10;103233.00;;;;5003900;28;20100;-72
2021/03/06 04:09:19;;;;;;;10.48;3.85;;;1.40;72.80;-0.10;103229.00;;;;4993158;28;20045;-72
2021/03/06 04:11:45;;;;;;;11.90;3.97;;;1.40;73.20;-0.10;103231.00;;;;4987896;28;20196;-72
2021/03/06 04:14:11;;;;;;;11.30;3.67;;;1.40;72.40;-0.10;103234.00;;;;4982652;28;20085;-71
2021/03/06 04:16:37;;;;;;;9.55;3.50;;;1.40;72.20;-0.10;103229.00;;;;5008221;28;20064;-72
2021/03/06 04:19:04;;;;;;;11.60;3.10;;;1.50;72.70;-0.10;103237.00;;;;5005116;28;20619;-71
2021/03/06 04:21:30;;;;;;;14.57;3.20;;;1.40;73.50;-0.10;103247.00;;;;4988961;28;20068;-72
2021/03/06 04:23:56;;;;;;;6.13;2.88;;;1.40;72.90;-0.10;103240.00;;;;5009831;28;20440;-72
2021/03/06 04:26:22;;;;;;;10.15;2.80;;;1.40;72.90;-0.10;103243.00;;;;4971631;28;20050;-71
2021/03/06 04:28:48;;;;;;;10.65;2.78;;;1.40;72.40;0.00;103244.00;;;;5001953;28;20466;-71
2021/03/06 04:31:14;;;;;;;10.60;2.83;;;1.40;73.40;0.00;103245.00;;;;4991616;28;20056;-72
2021/03/06 04:33:40;;;;;;;9.80;3.22;;;1.50;73.50;0.00;103239.00;;;;4993513;28;20045;-71
2021/03/06 04:36:06;;;;;;;10.07;3.22;;;1.50;73.20;0.00;103244.00;;;;4999098;28;20081;-71
2021/03/06 04:38:33;;;;;;;7.27;2.87;;;1.50;72.70;-0.10;103250.00;;;;5007179;28;20321;-71
2021/03/06 04:40:59;;;;;;;13.57;2.85;;;1.40;73.40;-0.10;103245.00;;;;4992276;28;20501;-71
2021/03/06 04:43:25;;;;;;;10.20;3.45;;;1.40;73.00;-0.20;103251.00;;;;4994581;28;20151;-71
2021/03/06 04:45:51;;;;;;;11.98;3.47;;;1.40;73.00;-0.20;103256.00;;;;4996870;28;20046;-72
2021/03/06 04:48:17;;;;;;;13.18;3.67;;;1.30;73.10;-0.30;103247.00;;;;4995755;28;20073;-71
2021/03/06 04:50:43;;;;;;;11.13;4.53;;;1.20;72.20;-0.40;103259.00;;;;4992630;28;20057;-71
2021/03/06 04:53:09;;;;;;;9.15;4.10;;;1.20;73.20;-0.50;103258.00;;;;5004243;28;20196;-71
2021/03/06 04:55:35;;;;;;;10.65;4.25;;;1.10;73.60;-0.60;103265.00;;;;4983254;28;20973;-71
2021/03/06 04:58:01;;;;;;;10.68;4.07;;;1.10;73.80;-0.60;103267.00;;;;4989870;28;20491;-71
2021/03/06 05:00:27;;;;;;;12.60;4.40;;;0.90;73.30;-0.70;103268.00;;;;4995714;28;20038;-71
2021/03/06 05:02:53;;;;;;;12.43;3.70;;;0.90;74.10;-0.70;103264.00;;;;4996158;28;20049;-70
2021/03/06 05:05:19;;;;;;;10.57;4.13;;;0.80;73.80;-0.80;103276.00;;;;4992407;28;20053;-71
2021/03/06 05:07:45;;;;;;;7.55;3.88;;;0.80;73.70;-0.80;103287.00;;;;4989188;28;20125;-71
2021/03/06 05:10:11;;;;;;;15.77;4.00;;;0.80;74.60;-0.80;103284.00;;;;5011155;28;20038;-71
2021/03/06 05:12:37;;;;;;;6.50;2.92;;;0.80;73.90;-0.80;103277.00;;;;5014593;28;20046;-72
2021/03/06 05:15:06;;;;;;;7.07;3.10;;;0.70;74.40;-0.90;103265.00;;;;4995947;28;20183;-71
2021/03/06 05:17:32;;;;;;;10.85;5.25;;;0.70;74.50;-0.90;103274.00;;;;4995770;28;20132;-71
2021/03/06 05:19:59;;;;;;;19.02;5.10;;;0.70;74.60;-1.00;103271.00;;;;5009190;28;20049;-71
2021/03/06 05:22:26;;;;;;;9.65;4.28;;;0.70;74.80;-1.00;103273.00;;;;4981867;28;20416;-71
2021/03/06 05:24:51;;;;;;;16.15;5.78;;;0.60;74.90;-1.10;103276.00;;;;5000001;28;20041;-71
2021/03/06 05:27:17;;;;;;;12.68;6.57;;;0.60;74.30;-1.10;103284.00;;;;5007396;28;20069;-71
2021/03/06 05:29:43;;;;;;;14.60;5.90;;;0.50;74.80;-1.10;103281.00;;;;4990737;28;20579;-72
2021/03/06 05:32:09;;;;;;;12.13;5.78;;;0.50;74.30;-1.10;103272.00;;;;4993624;28;20046;-71
2021/03/06 05:34:36;;;;;;;11.30;5.55;;;0.50;75.20;-1.10;103280.00;;;;4996956;28;20048;-71
2021/03/06 05:37:03;;;;;;;13.88;5.80;;;0.40;74.40;-1.20;103271.00;;;;4990083;28;20037;-71
2021/03/06 05:39:29;;;;;;;12.60;5.38;;;0.40;75.30;-1.20;103274.00;;;;4983492;28;20042;-72
2021/03/06 05:41:56;;;;;;;11.50;5.63;;;0.40;75.40;-1.30;103272.00;;;;4992366;28;20038;-72
2021/03/06 05:44:22;;;;;;;11.93;6.53;;;-0.20;74.90;-1.40;103277.00;;;;4991866;28;20033;-71
2021/03/06 05:46:49;;;;;;;14.90;6.63;;;0.30;76.50;-1.40;103262.00;;;;4997555;28;20054;-72
2021/03/06 05:49:15;;;;;;;16.00;8.30;;;0.30;75.10;-1.50;103267.00;;;;4985069;28;20120;-71
2021/03/06 05:51:42;;;;;;;14.80;7.00;;;0.20;75.00;-1.50;103263.00;;;;4992447;28;20050;-71
2021/03/06 05:54:11;;;;;;;13.83;7.27;;;0.10;74.60;-1.50;103272.00;;;;4987492;28;20045;-73
2021/03/06 05:56:43;;;;;;;18.67;6.60;;;0.30;75.70;-1.50;103274.00;;;;4996935;28;20292;-72
2021/03/06 05:59:13;;;;;;;11.38;5.93;;;0.10;75.50;-1.50;103286.00;;;;5009555;28;20124;-72
2021/03/06 06:01:42;;;;;;;16.40;6.53;;;2.60;76.90;-1.50;103274.00;;;;5009710;28;20128;-72
2021/03/06 06:04:09;;;;;;;15.65;6.57;;;0.20;75.10;-1.40;103277.00;;;;4976872;28;20031;-72
2021/03/06 06:06:38;;;;;;;14.95;6.70;;;0.20;74.80;-1.50;103288.00;;;;5008272;28;20488;-72
2021/03/06 06:09:07;;;;;;;12.60;6.63;;;0.00;75.50;-1.50;103274.00;;;;4980587;28;20642;-72
2021/03/06 06:11:34;;;;;;;15.98;6.72;;;0.20;76.40;-1.50;103279.00;;;;4991061;28;20053;-72
2021/03/06 06:14:01;;;;;;;15.23;6.22;;;0.10;75.90;-1.50;103275.00;;;;4990719;28;20046;-71
2021/03/06 06:16:34;;;;;;;14.88;7.10;;;0.10;75.80;-1.50;103279.00;;;;4991053;28;20050;-71
2021/03/06 06:19:04;;;;;;;16.17;8.20;;;0.20;75.80;-1.60;103283.00;;;;4990829;28;20046;-71
2021/03/06 06:21:44;;;;;;;16.63;8.07;;;0.10;76.20;-1.60;103280.00;;;;5003760;28;20065;-71
2021/03/06 06:24:14;;;;;;;13.45;7.10;;;0.10;76.00;-1.60;103283.00;;;;4986495;28;20030;-71
2021/03/06 06:27:00;;;;;;;19.02;6.88;;;0.10;75.80;-1.60;103274.00;;;;4986482;28;20054;-71
2021/03/06 06:29:46;;;;;;;14.50;6.55;;;0.00;76.00;-1.60;103295.00;;;;4991630;28;20068;-71
2021/03/06 06:32:14;;;;;;;15.95;6.53;;;0.00;76.10;-1.60;103307.00;;;;4974680;28;20406;-71
2021/03/06 06:34:42;;;;;;;9.70;5.38;;;0.10;76.20;-1.60;103303.00;;;;4988746;28;20577;-71
2021/03/06 06:37:16;;;;;;;16.05;6.97;;;0.10;75.90;-1.50;103295.00;;;;4969421;28;20120;-71
2021/03/06 06:39:43;;;;;;;19.60;7.97;;;0.00;77.10;-1.50;103297.00;;;;4960676;28;20058;-71
2021/03/06 06:42:10;;;;;;;15.38;7.90;;;0.10;76.30;-1.50;103308.00;;;;4968293;28;20076;-71
2021/03/06 06:44:37;;;;;;;14.73;7.28;;;0.10;76.40;-1.50;103308.00;;;;4968484;28;20584;-68
2021/03/06 06:47:19;;;;;;;15.13;7.90;;;0.10;76.40;-1.60;103305.00;;;;4973846;28;20054;-68
2021/03/06 06:49:47;;;;;;;20.10;6.97;;;0.10;76.50;-1.60;103326.00;;;;4981792;28;20054;-69
2021/03/06 06:52:15;;;;;;;16.40;6.90;;;0.00;76.00;-1.60;103320.00;;;;4972490;28;20074;-68
2021/03/06 06:54:55;;;;;;;12.90;7.25;;;0.00;76.30;-1.60;103318.00;;;;4974776;28;20042;-69
2021/03/06 06:57:22;;;;;;;18.77;7.30;;;0.00;76.20;-1.60;103330.00;;;;4985329;28;20049;-68
2021/03/06 07:00:10;;;;;;;15.70;6.70;;;0.00;76.50;-1.60;103330.00;;;;4989446;28;20042;-67
2021/03/06 07:02:36;;;;;;;14.15;6.63;;;0.00;75.00;-1.50;103329.00;;;;4975942;28;20046;-68
2021/03/06 07:05:06;;;;;;;12.43;6.25;;;0.00;76.70;-1.50;103329.00;;;;4974985;28;20105;-69
2021/03/06 07:07:42;;;;;;;15.18;7.15;;;0.00;78.00;-1.50;103326.00;;;;4970981;28;20053;-68
2021/03/06 07:10:14;;;;;;;12.73;7.18;;;0.10;76.20;-1.40;103342.00;;;;4966996;28;20128;-68
2021/03/06 07:12:44;;;;;;;13.75;7.53;;;0.10;77.20;-1.40;103344.00;;;;4979292;28;20424;-68
2021/03/06 07:15:19;;;;;;;13.18;7.38;;;-0.60;76.00;-1.30;103338.00;;;;4971563;28;20038;-69
2021/03/06 07:17:49;;;;;;;15.00;7.22;;;0.20;77.20;-1.20;103350.00;;;;4969132;28;20092;-69
2021/03/06 07:20:24;;;;;;;13.27;7.70;;;0.30;76.40;-1.10;103346.00;;;;4973652;28;20102;-69
2021/03/06 07:22:52;;;;;;;20.10;7.97;;;0.40;76.70;-1.00;103353.00;;;;4968767;28;20066;-69
2021/03/06 07:25:19;;;;;;;18.42;7.55;;;0.50;76.90;-0.90;103350.00;;;;4964374;28;20053;-70
2021/03/06 07:27:45;;;;;;;13.85;8.40;;;0.60;76.10;-0.80;103367.00;;;;4969228;28;20046;-69
2021/03/06 07:30:15;;;;;;;20.35;7.95;;;0.60;76.50;-0.70;103363.00;;;;4977031;28;20054;-69
2021/03/06 07:32:43;;;;;;;14.35;7.78;;;0.70;76.70;-0.50;103364.00;;;;4982666;28;20100;-70
2021/03/06 07:35:12;;;;;;;17.25;8.38;;;1.00;76.20;-0.40;103358.00;;;;4973721;28;20038;-70
2021/03/06 07:37:40;;;;;;;16.65;8.52;;;1.10;76.00;-0.20;103352.00;;;;4969939;28;20076;-70
2021/03/06 07:40:15;;;;;;;15.63;7.90;;;1.10;76.10;-0.10;103367.00;;;;4977106;28;20046;-70
2021/03/06 07:42:59;;;;;;;16.23;8.45;;;1.20;76.30;0.10;103369.00;;;;4966905;28;20283;-68
2021/03/06 07:45:29;;;;;;;18.80;8.15;;;1.80;77.00;0.20;103376.00;;;;4972166;28;20362;-70
2021/03/06 07:48:12;;;;;;;14.50;8.85;;;1.50;76.70;0.30;103366.00;;;;4955218;28;20711;-70
2021/03/06 07:50:42;;;;;;;16.80;7.20;;;1.70;76.90;0.40;103365.00;;;;4969255;28;20778;-67
2021/03/06 07:53:09;;;;;;;13.00;6.10;;;3.50;78.40;0.70;103375.00;;;;4970478;28;20050;-70
2021/03/06 07:55:36;;;;;;;17.90;5.22;;;1.90;76.90;0.80;103379.00;;;;4962636;28;20137;-70
2021/03/06 07:58:11;;;;;;;7.47;4.28;;;2.10;76.80;1.00;103379.00;;;;4965887;28;20081;-69
2021/03/06 08:00:54;;;;;;;15.45;5.63;;;2.20;76.70;1.10;103372.00;;;;4978949;28;20077;-70
2021/03/06 08:03:30;;;;;;;8.98;3.67;;;2.40;76.40;1.30;103377.00;;;;4973473;28;20129;-70
2021/03/06 08:05:56;;;;;;;11.10;4.10;;;2.50;76.70;1.50;103383.00;;;;4967803;28;20061;-69
2021/03/06 08:08:35;;;;;;;11.10;4.03;;;2.60;76.80;1.60;103379.00;;;;4988536;28;20221;-69
2021/03/06 08:11:17;;;;;;;12.75;3.25;;;2.70;75.10;1.80;103376.00;;;;4971234;28;20039;-70
2021/03/06 08:13:53;;;;;;;11.05;3.47;;;2.90;76.20;1.90;103382.00;;;;4965557;28;20117;-68
2021/03/06 08:16:22;;;;;;;8.98;3.10;;;3.00;76.40;2.10;103370.00;;;;4984983;28;20054;-70
2021/03/06 08:19:00;;;;;;;9.48;2.30;;;3.20;75.80;2.20;103382.00;;;;4985151;28;20038;-68
2021/03/06 08:21:50;;;;;;;7.97;2.38;;;3.30;75.80;2.30;103376.00;;;;4971650;28;20057;-68
2021/03/06 08:24:19;;;;;;;7.78;2.30;;;3.40;75.20;2.40;103383.00;;;;4990744;28;20064;-68
2021/03/06 08:27:03;;;;;;;9.70;2.25;;;3.50;74.80;2.50;103388.00;;;;4990716;28;20671;-68
2021/03/06 08:29:29;;;;;;;13.75;2.60;;;3.60;75.30;2.60;103382.00;;;;4991651;28;20152;-68
2021/03/06 08:32:25;;;;;;;8.95;2.15;;;3.70;74.80;2.60;103372.00;;;;5000619;28;20048;-68
2021/03/06 08:34:54;;;;;;;7.60;2.10;;;3.90;73.30;2.80;103359.00;;;;4986129;28;20053;-68
2021/03/06 08:37:19;;;;;;;11.88;2.30;;;3.90;73.50;2.90;103371.00;;;;4969546;28;20096;-68
2021/03/06 08:39:53;;;;;;;9.68;1.65;;;4.00;74.20;2.90;103376.00;;;;4983517;28;20049;-69
2021/03/06 08:42:55;;;;;;;6.65;1.88;;;4.00;73.10;3.00;103375.00;;;;4991232;28;20169;-70
2021/03/06 08:45:29;;;;;;;6.40;1.85;;;4.20;73.90;3.10;103370.00;;;;4978345;28;20038;-69
2021/03/06 08:48:02;;;;;;;12.45;2.15;;;4.20;73.90;3.20;103386.00;;;;4989544;28;20098;-69
2021/03/06 08:50:31;;;;;;;10.77;1.85;;;4.30;72.50;3.20;103385.00;;;;5003900;28;20620;-69
2021/03/06 08:53:06;;;;;;;16.13;2.35;;;4.30;73.40;3.30;103382.00;;;;4992448;28;20582;-69
2021/03/06 08:55:37;;;;;;;4.32;1.52;;;6.00;74.50;3.40;103381.00;;;;5006881;28;20134;-70
2021/03/06 08:58:05;;;;;;;8.50;1.90;;;4.50;73.30;3.50;103385.00;;;;4988231;28;20505;-70
2021/03/06 09:00:41;;;;;;;7.30;1.70;;;4.60;73.20;3.60;103385.00;;;;5014675;28;20073;-71
2021/03/06 09:03:17;;;;;;;7.65;1.60;;;4.70;73.20;3.60;103384.00;;;;4996365;28;20121;-70
2021/03/06 09:05:47;;;;;;;8.38;1.80;;;4.80;72.00;3.70;103377.00;;;;4990770;28;20034;-71
2021/03/06 09:08:13;;;;;;;7.10;1.95;;;4.80;72.80;3.80;103389.00;;;;4994273;28;20570;-70
2021/03/06 09:10:44;;;;;;;7.40;1.85;;;4.90;72.80;3.80;103385.00;;;;5007869;28;20046;-70
2021/03/06 09:13:19;;;;;;;7.43;1.75;;;5.00;72.40;3.80;103378.00;;;;5011140;28;20042;-70
2021/03/06 09:15:54;;;;;;;6.00;1.83;;;5.60;72.40;3.90;103395.00;;;;4999379;28;20045;-70
2021/03/06 09:18:23;;;;;;;8.90;1.80;;;5.00;72.20;4.00;103392.00;;;;5009367;28;20077;-69
2021/03/06 09:20:55;;;;;;;11.05;2.00;;;5.10;71.90;4.10;103392.00;;;;4993123;28;20069;-69
2021/03/06 09:23:41;;;;;;;7.05;1.58;;;5.20;71.70;4.10;103386.00;;;;4985263;28;20054;-71
2021/03/06 09:26:16;;;;;;;11.52;1.83;;;5.20;71.10;4.10;103391.00;;;;4996524;28;20424;-71
2021/03/06 09:28:48;;;;;;;6.50;1.35;;;5.20;70.90;4.20;103400.00;;;;4990834;28;20655;-70
2021/03/06 09:31:21;;;;;;;4.70;1.13;;;5.30;70.90;4.20;103387.00;;;;4993755;28;20558;-71
2021/03/06 09:33:47;;;;;;;7.85;1.70;;;5.30;70.90;4.30;103383.00;;;;4990119;28;20104;-70
2021/03/06 09:36:20;;;;;;;10.88;1.67;;;5.50;69.90;4.40;103401.00;;;;4995140;28;20037;-70
2021/03/06 09:38:55;;;;;;;5.90;1.50;;;5.50;69.80;4.40;103387.00;;;;4998049;28;20763;-70
2021/03/06 09:41:33;;;;;;;13.77;1.70;;;5.50;69.30;4.50;103386.00;;;;4993067;28;20050;-71
2021/03/06 09:44:01;;;;;;;;;;;5.60;70.30;4.50;103383.00;;;;4990985;28;20496;-71
2021/03/06 09:46:31;;;;;;;9.37;1.27;;;5.60;69.50;4.60;103386.00;;;;5006983;28;19948;-70
2021/03/06 09:49:09;;;;;;;10.30;2.00;;;5.70;69.60;4.60;103385.00;;;;4992735;28;20049;-70
2021/03/06 09:51:53;;;;;;;8.77;1.83;;;5.70;68.50;4.70;103385.00;;;;4991040;28;20713;-70
2021/03/06 09:54:25;;;;;;;8.98;2.13;;;5.80;69.70;4.80;103382.00;;;;4969649;28;20065;-70
2021/03/06 09:56:58;;;;;;;7.65;1.60;;;5.90;69.10;4.90;103376.00;;;;4988822;28;20521;-70
2021/03/06 09:59:27;;;;;;;4.60;1.10;;;5.90;68.90;5.00;103372.00;;;;4987322;28;20041;-70
2021/03/06 10:01:53;;;;;;;5.85;0.93;;;6.00;68.30;4.90;103388.00;;;;4992110;28;20050;-69
2021/03/06 10:04:22;;;;;;;12.10;1.70;;;6.00;67.20;4.80;103374.00;;;;4990926;28;20042;-70
2021/03/06 10:06:53;;;;;;;7.15;1.77;;;5.90;68.30;4.90;103376.00;;;;4966560;28;20043;-70
2021/03/06 10:09:22;;;;;;;6.03;1.63;;;6.00;69.00;5.00;103380.00;;;;4980425;28;20047;-71
2021/03/06 10:12:02;;;;;;;5.45;1.20;;;6.10;68.40;5.20;103378.00;;;;4984476;28;20297;-71
2021/03/06 10:14:28;;;;;;;6.55;2.05;;;6.30;67.80;5.30;103376.00;;;;5001180;28;20149;-71
2021/03/06 10:17:06;;;;;;;6.95;1.50;;;6.30;66.80;5.40;103386.00;;;;4999498;28;20054;-71
2021/03/06 10:19:52;;;;;;;7.43;1.35;;;6.40;67.10;5.40;103382.00;;;;4984214;28;20085;-71
2021/03/06 10:22:19;;;;;;;7.13;1.33;;;6.60;65.50;5.40;103374.00;;;;5003694;28;20054;-71
2021/03/06 10:25:02;;;;;;;8.90;1.38;;;6.50;66.90;5.50;103377.00;;;;4991956;28;20053;-71
2021/03/06 10:27:39;;;;;;;4.57;1.10;;;6.50;66.60;5.70;103381.00;;;;5010238;28;20505;-70
2021/03/06 10:30:37;;;;;;;9.40;1.10;;;6.70;66.30;6.00;103381.00;;;;4983536;28;20049;-71
2021/03/06 10:33:06;;;;;;;6.43;1.20;;;6.90;65.90;6.00;103382.00;;;;4983824;28;20484;-70
2021/03/06 10:35:39;;;;;;;3.95;1.17;;;6.90;61.70;5.90;103376.00;;;;4995133;28;20037;-71
2021/03/06 10:38:13;;;;;;;7.78;1.52;;;6.90;62.90;6.00;103377.00;;;;4989315;28;20153;-70
2021/03/06 10:40:56;;;;;;;5.20;1.42;;;7.00;65.40;6.30;103382.00;;;;4979800;28;20042;-71
2021/03/06 10:43:39;;;;;;;4.35;1.67;;;7.60;63.30;6.40;103376.00;;;;4987177;28;20745;-71
2021/03/06 10:46:24;;;;;;;11.05;1.67;;;7.40;63.80;6.70;103389.00;;;;4990495;28;20042;-71
2021/03/06 10:49:09;;;;;;;4.00;1.38;;;7.60;63.70;6.80;103378.00;;;;4991769;28;20482;-72
2021/03/06 10:51:49;;;;;;;5.78;1.30;;;7.80;60.80;7.00;103376.00;;;;4983612;28;20061;-72
2021/03/06 10:54:16;;;;;;;4.50;0.90;;;7.90;63.20;7.00;103377.00;;;;4994707;28;20053;-71
2021/03/06 10:56:42;;;;;;;3.50;0.90;;;8.00;61.80;6.70;103380.00;;;;4980219;28;20123;-70
2021/03/06 10:59:09;;;;;;;5.47;1.30;;;7.70;61.70;6.60;103378.00;;;;4975557;28;20049;-72
2021/03/06 11:01:50;;;;;;;5.05;0.88;;;7.70;60.50;6.40;103370.00;;;;4992638;28;20062;-72
2021/03/06 11:04:30;;;;;;;5.30;1.27;;;7.50;60.90;6.40;103372.00;;;;4993534;28;20046;-72
2021/03/06 11:07:05;;;;;;;3.55;1.25;;;7.50;61.40;6.50;103376.00;;;;5005236;28;20292;-72
2021/03/06 11:09:41;;;;;;;8.18;1.50;;;7.50;62.40;6.50;103367.00;;;;5005116;28;20046;-72
2021/03/06 11:12:21;;;;;;;5.45;1.60;;;7.50;61.70;6.40;103361.00;;;;4995730;28;20050;-72